sensor_id;sensor_type;location;lat;lon;timestamp;P1;durP1;ratioP1;P2;durP2;ratioP2
26953;SDS011;14508;50.924;11.600;2022-08-11T00:01:45;4.45;;;3.08;;
26953;SDS011;14508;50.924;11.600;2022-08-11T00:04:13;5.03;;;3.40;;
26953;SDS011;14508;50.924;11.600;2022-08-11T00:06:42;5.50;;;3.80;;
26953;SDS011;14508;50.924;11.600;2022-08-11T00:09:12;12.20;;;3.85;;
26953;SDS011;14508;50.924;11.600;2022-08-11T00:11:43;9.55;;;3.40;;
26953;SDS011;14508;50.924;11.600;2022-08-11T00:14:13;6.15;;;3.67;;
26953;SDS011;14508;50.924;11.600;2022-08-11T00:16:43;5.53;;;4.00;;
26953;SDS011;14508;50.924;11.600;2022-08-11T00:19:20;4.47;;;3.78;;
26953;SDS011;14508;50.924;11.600;2022-08-11T00:21:48;8.85;;;3.53;;
26953;SDS011;14508;50.924;11.600;2022-08-11T00:24:15;10.10;;;3.85;;
26953;SDS011;14508;50.924;11.600;2022-08-11T00:26:45;4.53;;;3.40;;
26953;SDS011;14508;50.924;11.600;2022-08-11T00:29:13;4.72;;;3.55;;
26953;SDS011;14508;50.924;11.600;2022-08-11T00:31:43;4.78;;;3.05;;
26953;SDS011;14508;50.924;11.600;2022-08-11T00:34:12;7.97;;;3.10;;
26953;SDS011;14508;50.924;11.600;2022-08-11T00:36:44;9.52;;;4.20;;
26953;SDS011;14508;50.924;11.600;2022-08-11T00:39:15;7.65;;;3.53;;
26953;SDS011;14508;50.924;11.600;2022-08-11T00:41:46;6.68;;;3.80;;
26953;SDS011;14508;50.924;11.600;2022-08-11T00:44:28;5.50;;;3.72;;
26953;SDS011;14508;50.924;11.600;2022-08-11T00:47:04;6.45;;;3.65;;
26953;SDS011;14508;50.924;11.600;2022-08-11T00:49:44;5.40;;;3.70;;
26953;SDS011;14508;50.924;11.600;2022-08-11T00:52:28;10.75;;;3.63;;
26953;SDS011;14508;50.924;11.600;2022-08-11T01:01:23;8.45;;;4.47;;
26953;SDS011;14508;50.924;11.600;2022-08-11T01:04:07;4.85;;;3.50;;
26953;SDS011;14508;50.924;11.600;2022-08-11T01:10:05;5.97;;;3.80;;
26953;SDS011;14508;50.924;11.600;2022-08-11T01:12:59;5.85;;;3.78;;
26953;SDS011;14508;50.924;11.600;2022-08-11T01:15:44;5.60;;;3.85;;
26953;SDS011;14508;50.924;11.600;2022-08-11T01:24:40;6.43;;;4.40;;
26953;SDS011;14508;50.924;11.600;2022-08-11T01:27:31;7.85;;;5.40;;
26953;SDS011;14508;50.924;11.600;2022-08-11T01:33:51;7.78;;;4.50;;
26953;SDS011;14508;50.924;11.600;2022-08-11T01:37:01;7.82;;;4.50;;
26953;SDS011;14508;50.924;11.600;2022-08-11T01:39:55;8.80;;;3.83;;
26953;SDS011;14508;50.924;11.600;2022-08-11T01:42:55;6.88;;;4.40;;
26953;SDS011;14508;50.924;11.600;2022-08-11T01:45:55;10.18;;;4.55;;
26953;SDS011;14508;50.924;11.600;2022-08-11T01:48:29;7.05;;;3.95;;
26953;SDS011;14508;50.924;11.600;2022-08-11T01:51:16;6.30;;;4.13;;
26953;SDS011;14508;50.924;11.600;2022-08-11T01:53:56;7.25;;;4.35;;
26953;SDS011;14508;50.924;11.600;2022-08-11T01:56:48;7.88;;;4.10;;
26953;SDS011;14508;50.924;11.600;2022-08-11T01:59:24;8.82;;;4.20;;
26953;SDS011;14508;50.924;11.600;2022-08-11T02:02:02;6.57;;;3.88;;
26953;SDS011;14508;50.924;11.600;2022-08-11T02:04:46;5.40;;;4.45;;
26953;SDS011;14508;50.924;11.600;2022-08-11T02:07:23;7.78;;;4.93;;
26953;SDS011;14508;50.924;11.600;2022-08-11T02:09:59;9.27;;;4.28;;
26953;SDS011;14508;50.924;11.600;2022-08-11T02:12:50;8.00;;;4.20;;
26953;SDS011;14508;50.924;11.600;2022-08-11T02:15:23;9.23;;;4.75;;
26953;SDS011;14508;50.924;11.600;2022-08-11T02:17:58;7.63;;;4.40;;
26953;SDS011;14508;50.924;11.600;2022-08-11T02:20:31;12.85;;;4.32;;
26953;SDS011;14508;50.924;11.600;2022-08-11T02:23:25;7.22;;;3.80;;
26953;SDS011;14508;50.924;11.600;2022-08-11T02:26:08;6.65;;;4.43;;
26953;SDS011;14508;50.924;11.600;2022-08-11T02:28:59;9.27;;;4.93;;
26953;SDS011;14508;50.924;11.600;2022-08-11T02:31:37;7.90;;;4.45;;
26953;SDS011;14508;50.924;11.600;2022-08-11T02:34:29;8.00;;;4.50;;
26953;SDS011;14508;50.924;11.600;2022-08-11T02:37:06;10.05;;;4.95;;
26953;SDS011;14508;50.924;11.600;2022-08-11T02:39:45;5.43;;;4.53;;
26953;SDS011;14508;50.924;11.600;2022-08-11T02:42:24;7.68;;;4.93;;
26953;SDS011;14508;50.924;11.600;2022-08-11T02:45:02;7.90;;;5.05;;
26953;SDS011;14508;50.924;11.600;2022-08-11T02:47:40;7.70;;;4.90;;
26953;SDS011;14508;50.924;11.600;2022-08-11T02:50:34;7.57;;;4.28;;
26953;SDS011;14508;50.924;11.600;2022-08-11T02:53:05;7.32;;;5.28;;
26953;SDS011;14508;50.924;11.600;2022-08-11T02:55:43;6.85;;;4.97;;
26953;SDS011;14508;50.924;11.600;2022-08-11T02:58:21;8.10;;;5.22;;
26953;SDS011;14508;50.924;11.600;2022-08-11T03:01:02;8.27;;;5.60;;
26953;SDS011;14508;50.924;11.600;2022-08-11T03:03:37;9.48;;;5.35;;
26953;SDS011;14508;50.924;11.600;2022-08-11T03:06:18;6.85;;;5.25;;
26953;SDS011;14508;50.924;11.600;2022-08-11T03:08:58;10.90;;;5.53;;
26953;SDS011;14508;50.924;11.600;2022-08-11T03:11:38;8.00;;;4.70;;
26953;SDS011;14508;50.924;11.600;2022-08-11T03:14:33;7.40;;;5.60;;
26953;SDS011;14508;50.924;11.600;2022-08-11T03:17:27;6.93;;;5.72;;
26953;SDS011;14508;50.924;11.600;2022-08-11T03:20:02;10.40;;;5.80;;
26953;SDS011;14508;50.924;11.600;2022-08-11T03:22:44;9.48;;;5.55;;
26953;SDS011;14508;50.924;11.600;2022-08-11T03:25:18;9.57;;;5.30;;
26953;SDS011;14508;50.924;11.600;2022-08-11T03:27:57;7.68;;;5.15;;
26953;SDS011;14508;50.924;11.600;2022-08-11T03:30:31;6.82;;;5.35;;
26953;SDS011;14508;50.924;11.600;2022-08-11T03:33:11;10.02;;;6.18;;
26953;SDS011;14508;50.924;11.600;2022-08-11T03:36:08;11.13;;;5.50;;
26953;SDS011;14508;50.924;11.600;2022-08-11T03:38:47;11.25;;;5.40;;
26953;SDS011;14508;50.924;11.600;2022-08-11T03:41:28;7.93;;;5.45;;
26953;SDS011;14508;50.924;11.600;2022-08-11T03:44:27;9.02;;;5.60;;
26953;SDS011;14508;50.924;11.600;2022-08-11T03:47:11;7.40;;;5.90;;
26953;SDS011;14508;50.924;11.600;2022-08-11T03:49:57;11.52;;;5.50;;
26953;SDS011;14508;50.924;11.600;2022-08-11T03:52:33;9.88;;;5.13;;
26953;SDS011;14508;50.924;11.600;2022-08-11T03:55:13;14.07;;;5.65;;
26953;SDS011;14508;50.924;11.600;2022-08-11T04:06:52;9.10;;;5.25;;
26953;SDS011;14508;50.924;11.600;2022-08-11T04:12:43;8.10;;;5.68;;
26953;SDS011;14508;50.924;11.600;2022-08-11T04:24:49;8.00;;;6.07;;
26953;SDS011;14508;50.924;11.600;2022-08-11T04:30:34;10.80;;;6.63;;
26953;SDS011;14508;50.924;11.600;2022-08-11T04:33:29;7.53;;;5.82;;
26953;SDS011;14508;50.924;11.600;2022-08-11T04:36:09;8.25;;;6.40;;
26953;SDS011;14508;50.924;11.600;2022-08-11T04:39:13;8.35;;;5.60;;
26953;SDS011;14508;50.924;11.600;2022-08-11T04:42:06;11.95;;;6.07;;
26953;SDS011;14508;50.924;11.600;2022-08-11T04:45:19;11.32;;;6.28;;
26953;SDS011;14508;50.924;11.600;2022-08-11T04:48:18;22.20;;;8.50;;
26953;SDS011;14508;50.924;11.600;2022-08-11T04:51:21;11.70;;;7.13;;
26953;SDS011;14508;50.924;11.600;2022-08-11T04:54:41;13.13;;;8.27;;
26953;SDS011;14508;50.924;11.600;2022-08-11T04:57:40;12.48;;;8.15;;
26953;SDS011;14508;50.924;11.600;2022-08-11T05:00:35;14.32;;;7.18;;
26953;SDS011;14508;50.924;11.600;2022-08-11T05:07:03;13.93;;;7.97;;
26953;SDS011;14508;50.924;11.600;2022-08-11T05:09:59;14.65;;;7.65;;
26953;SDS011;14508;50.924;11.600;2022-08-11T05:12:35;14.75;;;7.85;;
26953;SDS011;14508;50.924;11.600;2022-08-11T05:15:10;13.15;;;8.02;;
26953;SDS011;14508;50.924;11.600;2022-08-11T05:17:57;17.75;;;9.57;;
26953;SDS011;14508;50.924;11.600;2022-08-11T05:20:48;18.33;;;8.60;;
26953;SDS011;14508;50.924;11.600;2022-08-11T05:23:34;11.32;;;7.82;;
26953;SDS011;14508;50.924;11.600;2022-08-11T05:26:24;16.23;;;8.63;;
26953;SDS011;14508;50.924;11.600;2022-08-11T05:29:25;13.98;;;8.43;;
26953;SDS011;14508;50.924;11.600;2022-08-11T05:32:18;15.10;;;8.40;;
26953;SDS011;14508;50.924;11.600;2022-08-11T05:37:33;14.40;;;9.00;;
26953;SDS011;14508;50.924;11.600;2022-08-11T05:40:07;12.93;;;8.25;;
26953;SDS011;14508;50.924;11.600;2022-08-11T05:42:55;18.95;;;8.15;;
26953;SDS011;14508;50.924;11.600;2022-08-11T05:45:41;11.73;;;7.70;;
26953;SDS011;14508;50.924;11.600;2022-08-11T05:48:28;12.45;;;8.32;;
26953;SDS011;14508;50.924;11.600;2022-08-11T05:51:15;13.70;;;8.57;;
26953;SDS011;14508;50.924;11.600;2022-08-11T05:54:01;11.25;;;8.02;;
26953;SDS011;14508;50.924;11.600;2022-08-11T05:56:48;11.77;;;7.78;;
26953;SDS011;14508;50.924;11.600;2022-08-11T05:59:19;13.15;;;9.50;;
26953;SDS011;14508;50.924;11.600;2022-08-11T06:01:47;14.07;;;8.80;;
26953;SDS011;14508;50.924;11.600;2022-08-11T06:04:16;13.88;;;8.73;;
26953;SDS011;14508;50.924;11.600;2022-08-11T06:06:46;16.42;;;8.35;;
26953;SDS011;14508;50.924;11.600;2022-08-11T06:09:20;10.43;;;7.07;;
26953;SDS011;14508;50.924;11.600;2022-08-11T06:11:52;15.27;;;8.90;;
26953;SDS011;14508;50.924;11.600;2022-08-11T06:14:24;10.20;;;7.60;;
26953;SDS011;14508;50.924;11.600;2022-08-11T06:16:52;18.92;;;8.93;;
26953;SDS011;14508;50.924;11.600;2022-08-11T06:19:23;11.95;;;7.95;;
26953;SDS011;14508;50.924;11.600;2022-08-11T06:21:57;13.73;;;7.57;;
26953;SDS011;14508;50.924;11.600;2022-08-11T06:24:26;12.00;;;7.63;;
26953;SDS011;14508;50.924;11.600;2022-08-11T06:26:53;11.82;;;6.57;;
26953;SDS011;14508;50.924;11.600;2022-08-11T06:29:21;14.20;;;7.45;;
26953;SDS011;14508;50.924;11.600;2022-08-11T06:31:51;10.02;;;7.18;;
26953;SDS011;14508;50.924;11.600;2022-08-11T06:34:25;14.48;;;7.57;;
26953;SDS011;14508;50.924;11.600;2022-08-11T06:36:58;20.05;;;8.18;;
26953;SDS011;14508;50.924;11.600;2022-08-11T06:39:38;15.15;;;7.68;;
26953;SDS011;14508;50.924;11.600;2022-08-11T06:42:13;12.18;;;7.57;;
26953;SDS011;14508;50.924;11.600;2022-08-11T06:44:51;12.18;;;8.27;;
26953;SDS011;14508;50.924;11.600;2022-08-11T06:47:29;15.80;;;7.88;;
26953;SDS011;14508;50.924;11.600;2022-08-11T06:49:56;16.77;;;9.05;;
26953;SDS011;14508;50.924;11.600;2022-08-11T06:55:10;11.77;;;6.22;;
26953;SDS011;14508;50.924;11.600;2022-08-11T06:57:58;8.60;;;6.00;;
26953;SDS011;14508;50.924;11.600;2022-08-11T07:00:45;11.45;;;6.72;;
26953;SDS011;14508;50.924;11.600;2022-08-11T07:03:15;10.70;;;6.63;;
26953;SDS011;14508;50.924;11.600;2022-08-11T07:05:44;14.15;;;6.20;;
26953;SDS011;14508;50.924;11.600;2022-08-11T07:08:19;13.85;;;6.60;;
26953;SDS011;14508;50.924;11.600;2022-08-11T07:11:33;9.80;;;5.75;;
26953;SDS011;14508;50.924;11.600;2022-08-11T07:14:37;14.88;;;6.32;;
26953;SDS011;14508;50.924;11.600;2022-08-11T07:17:30;17.45;;;6.40;;
26953;SDS011;14508;50.924;11.600;2022-08-11T07:20:00;9.13;;;6.75;;
26953;SDS011;14508;50.924;11.600;2022-08-11T07:22:48;11.55;;;6.80;;
26953;SDS011;14508;50.924;11.600;2022-08-11T07:25:38;7.75;;;5.57;;
26953;SDS011;14508;50.924;11.600;2022-08-11T07:28:24;11.27;;;5.68;;
26953;SDS011;14508;50.924;11.600;2022-08-11T07:31:11;13.40;;;5.88;;
26953;SDS011;14508;50.924;11.600;2022-08-11T07:33:43;11.80;;;6.05;;
26953;SDS011;14508;50.924;11.600;2022-08-11T07:36:13;14.55;;;6.90;;
26953;SDS011;14508;50.924;11.600;2022-08-11T07:38:43;15.38;;;5.88;;
26953;SDS011;14508;50.924;11.600;2022-08-11T07:41:16;14.75;;;5.63;;
26953;SDS011;14508;50.924;11.600;2022-08-11T07:43:44;16.13;;;5.28;;
26953;SDS011;14508;50.924;11.600;2022-08-11T07:46:14;11.30;;;6.20;;
26953;SDS011;14508;50.924;11.600;2022-08-11T07:49:00;10.00;;;5.00;;
26953;SDS011;14508;50.924;11.600;2022-08-11T07:51:47;10.45;;;5.72;;
26953;SDS011;14508;50.924;11.600;2022-08-11T07:54:32;9.50;;;6.05;;
26953;SDS011;14508;50.924;11.600;2022-08-11T07:57:01;7.55;;;5.50;;
26953;SDS011;14508;50.924;11.600;2022-08-11T07:59:47;8.02;;;5.05;;
26953;SDS011;14508;50.924;11.600;2022-08-11T08:02:41;10.70;;;5.30;;
26953;SDS011;14508;50.924;11.600;2022-08-11T08:05:28;18.42;;;5.78;;
26953;SDS011;14508;50.924;11.600;2022-08-11T08:08:13;6.80;;;5.32;;
26953;SDS011;14508;50.924;11.600;2022-08-11T08:10:58;13.37;;;5.37;;
26953;SDS011;14508;50.924;11.600;2022-08-11T08:13:44;14.55;;;5.32;;
26953;SDS011;14508;50.924;11.600;2022-08-11T08:16:29;7.10;;;5.07;;
26953;SDS011;14508;50.924;11.600;2022-08-11T08:19:15;9.93;;;4.88;;
26953;SDS011;14508;50.924;11.600;2022-08-11T08:21:46;9.40;;;5.40;;
26953;SDS011;14508;50.924;11.600;2022-08-11T08:24:13;8.57;;;4.88;;
26953;SDS011;14508;50.924;11.600;2022-08-11T08:26:41;17.20;;;4.47;;
26953;SDS011;14508;50.924;11.600;2022-08-11T08:29:24;8.65;;;4.95;;
26953;SDS011;14508;50.924;11.600;2022-08-11T08:32:09;8.50;;;4.60;;
26953;SDS011;14508;50.924;11.600;2022-08-11T08:34:37;9.52;;;4.65;;
26953;SDS011;14508;50.924;11.600;2022-08-11T08:37:06;8.23;;;4.28;;
26953;SDS011;14508;50.924;11.600;2022-08-11T08:39:34;4.47;;;4.07;;
26953;SDS011;14508;50.924;11.600;2022-08-11T08:42:03;7.95;;;4.45;;
26953;SDS011;14508;50.924;11.600;2022-08-11T08:44:35;11.23;;;5.07;;
26953;SDS011;14508;50.924;11.600;2022-08-11T08:47:06;12.05;;;4.00;;
26953;SDS011;14508;50.924;11.600;2022-08-11T08:49:38;7.35;;;4.85;;
26953;SDS011;14508;50.924;11.600;2022-08-11T08:54:43;17.25;;;4.80;;
26953;SDS011;14508;50.924;11.600;2022-08-11T08:57:13;9.50;;;4.88;;
26953;SDS011;14508;50.924;11.600;2022-08-11T08:59:45;10.75;;;4.88;;
26953;SDS011;14508;50.924;11.600;2022-08-11T09:02:14;17.05;;;4.47;;
26953;SDS011;14508;50.924;11.600;2022-08-11T09:04:42;11.48;;;4.63;;
26953;SDS011;14508;50.924;11.600;2022-08-11T09:07:11;10.05;;;5.32;;
26953;SDS011;14508;50.924;11.600;2022-08-11T09:09:42;8.10;;;4.53;;
26953;SDS011;14508;50.924;11.600;2022-08-11T09:12:12;6.75;;;4.78;;
26953;SDS011;14508;50.924;11.600;2022-08-11T09:14:41;11.15;;;4.80;;
26953;SDS011;14508;50.924;11.600;2022-08-11T09:17:28;9.88;;;4.53;;
26953;SDS011;14508;50.924;11.600;2022-08-11T09:19:58;9.68;;;3.38;;
26953;SDS011;14508;50.924;11.600;2022-08-11T09:22:26;4.90;;;3.45;;
26953;SDS011;14508;50.924;11.600;2022-08-11T09:25:13;4.47;;;3.13;;
26953;SDS011;14508;50.924;11.600;2022-08-11T09:27:58;6.82;;;3.42;;
26953;SDS011;14508;50.924;11.600;2022-08-11T09:30:25;9.40;;;3.22;;
26953;SDS011;14508;50.924;11.600;2022-08-11T09:32:53;7.55;;;3.50;;
26953;SDS011;14508;50.924;11.600;2022-08-11T09:35:22;5.10;;;2.95;;
26953;SDS011;14508;50.924;11.600;2022-08-11T09:37:50;5.25;;;2.80;;
26953;SDS011;14508;50.924;11.600;2022-08-11T09:40:37;6.15;;;3.17;;
26953;SDS011;14508;50.924;11.600;2022-08-11T09:43:04;8.50;;;3.40;;
26953;SDS011;14508;50.924;11.600;2022-08-11T09:45:52;5.32;;;2.70;;
26953;SDS011;14508;50.924;11.600;2022-08-11T09:48:21;6.68;;;2.85;;
26953;SDS011;14508;50.924;11.600;2022-08-11T09:50:50;7.32;;;2.85;;
26953;SDS011;14508;50.924;11.600;2022-08-11T09:53:19;6.38;;;2.90;;
26953;SDS011;14508;50.924;11.600;2022-08-11T09:55:48;3.78;;;2.25;;
26953;SDS011;14508;50.924;11.600;2022-08-11T09:58:16;5.25;;;2.47;;
26953;SDS011;14508;50.924;11.600;2022-08-11T10:00:44;4.75;;;2.50;;
26953;SDS011;14508;50.924;11.600;2022-08-11T10:03:14;4.10;;;2.20;;
26953;SDS011;14508;50.924;11.600;2022-08-11T10:05:43;14.77;;;2.42;;
26953;SDS011;14508;50.924;11.600;2022-08-11T10:08:30;4.95;;;2.22;;
26953;SDS011;14508;50.924;11.600;2022-08-11T10:11:00;6.30;;;2.58;;
26953;SDS011;14508;50.924;11.600;2022-08-11T10:13:28;8.13;;;2.50;;
26953;SDS011;14508;50.924;11.600;2022-08-11T10:15:59;6.72;;;2.65;;
26953;SDS011;14508;50.924;11.600;2022-08-11T10:18:28;3.95;;;2.10;;
26953;SDS011;14508;50.924;11.600;2022-08-11T10:21:13;6.50;;;2.33;;
26953;SDS011;14508;50.924;11.600;2022-08-11T10:23:47;6.38;;;2.35;;
26953;SDS011;14508;50.924;11.600;2022-08-11T10:26:35;3.20;;;2.10;;
26953;SDS011;14508;50.924;11.600;2022-08-11T10:29:19;9.60;;;2.47;;
26953;SDS011;14508;50.924;11.600;2022-08-11T10:32:05;11.05;;;2.88;;
26953;SDS011;14508;50.924;11.600;2022-08-11T10:34:50;6.88;;;2.50;;
26953;SDS011;14508;50.924;11.600;2022-08-11T10:37:19;5.82;;;2.40;;
26953;SDS011;14508;50.924;11.600;2022-08-11T10:39:48;3.97;;;2.38;;
26953;SDS011;14508;50.924;11.600;2022-08-11T10:42:16;7.35;;;3.58;;
26953;SDS011;14508;50.924;11.600;2022-08-11T10:45:03;5.10;;;2.45;;
26953;SDS011;14508;50.924;11.600;2022-08-11T10:47:52;4.38;;;2.67;;
26953;SDS011;14508;50.924;11.600;2022-08-11T10:50:19;3.67;;;2.60;;
26953;SDS011;14508;50.924;11.600;2022-08-11T10:53:03;4.47;;;2.10;;
26953;SDS011;14508;50.924;11.600;2022-08-11T10:55:50;3.35;;;2.17;;
26953;SDS011;14508;50.924;11.600;2022-08-11T10:58:36;7.27;;;2.43;;
26953;SDS011;14508;50.924;11.600;2022-08-11T11:01:18;5.95;;;2.55;;
26953;SDS011;14508;50.924;11.600;2022-08-11T11:03:49;10.30;;;4.32;;
26953;SDS011;14508;50.924;11.600;2022-08-11T11:06:20;6.72;;;2.63;;
26953;SDS011;14508;50.924;11.600;2022-08-11T11:08:51;6.15;;;2.83;;
26953;SDS011;14508;50.924;11.600;2022-08-11T11:11:22;3.50;;;2.03;;
26953;SDS011;14508;50.924;11.600;2022-08-11T11:14:14;4.90;;;2.17;;
26953;SDS011;14508;50.924;11.600;2022-08-11T11:17:01;6.03;;;2.25;;
26953;SDS011;14508;50.924;11.600;2022-08-11T11:19:48;4.03;;;1.83;;
26953;SDS011;14508;50.924;11.600;2022-08-11T11:22:21;5.10;;;2.08;;
26953;SDS011;14508;50.924;11.600;2022-08-11T11:25:15;6.53;;;2.53;;
26953;SDS011;14508;50.924;11.600;2022-08-11T11:27:53;3.95;;;2.00;;
26953;SDS011;14508;50.924;11.600;2022-08-11T11:30:34;5.75;;;2.25;;
26953;SDS011;14508;50.924;11.600;2022-08-11T11:33:07;8.90;;;1.90;;
26953;SDS011;14508;50.924;11.600;2022-08-11T11:35:43;9.13;;;2.42;;
26953;SDS011;14508;50.924;11.600;2022-08-11T11:38:18;4.75;;;2.35;;
26953;SDS011;14508;50.924;11.600;2022-08-11T11:40:46;2.95;;;1.80;;
26953;SDS011;14508;50.924;11.600;2022-08-11T11:43:34;5.80;;;2.10;;
26953;SDS011;14508;50.924;11.600;2022-08-11T11:46:02;3.78;;;2.42;;
26953;SDS011;14508;50.924;11.600;2022-08-11T11:48:31;10.98;;;2.25;;
26953;SDS011;14508;50.924;11.600;2022-08-11T11:50:59;4.32;;;2.20;;
26953;SDS011;14508;50.924;11.600;2022-08-11T11:53:26;7.20;;;2.47;;
26953;SDS011;14508;50.924;11.600;2022-08-11T11:55:54;9.05;;;2.00;;
26953;SDS011;14508;50.924;11.600;2022-08-11T11:58:22;5.13;;;2.15;;
26953;SDS011;14508;50.924;11.600;2022-08-11T12:01:08;11.18;;;2.55;;
26953;SDS011;14508;50.924;11.600;2022-08-11T12:03:44;4.68;;;2.03;;
26953;SDS011;14508;50.924;11.600;2022-08-11T12:06:12;5.35;;;2.30;;
26953;SDS011;14508;50.924;11.600;2022-08-11T12:08:40;5.18;;;2.05;;
26953;SDS011;14508;50.924;11.600;2022-08-11T12:11:09;7.90;;;2.00;;
26953;SDS011;14508;50.924;11.600;2022-08-11T12:13:55;7.85;;;2.50;;
26953;SDS011;14508;50.924;11.600;2022-08-11T12:16:26;6.03;;;2.30;;
26953;SDS011;14508;50.924;11.600;2022-08-11T12:18:54;9.13;;;2.03;;
26953;SDS011;14508;50.924;11.600;2022-08-11T12:21:23;3.63;;;2.13;;
26953;SDS011;14508;50.924;11.600;2022-08-11T12:23:51;3.05;;;2.30;;
26953;SDS011;14508;50.924;11.600;2022-08-11T12:26:37;7.75;;;2.58;;
26953;SDS011;14508;50.924;11.600;2022-08-11T12:29:18;9.45;;;2.10;;
26953;SDS011;14508;50.924;11.600;2022-08-11T12:31:52;6.00;;;1.95;;
26953;SDS011;14508;50.924;11.600;2022-08-11T12:34:22;7.47;;;2.05;;
26953;SDS011;14508;50.924;11.600;2022-08-11T12:36:53;4.88;;;2.30;;
26953;SDS011;14508;50.924;11.600;2022-08-11T12:39:23;4.65;;;2.05;;
26953;SDS011;14508;50.924;11.600;2022-08-11T12:42:06;3.92;;;2.00;;
26953;SDS011;14508;50.924;11.600;2022-08-11T12:44:52;4.57;;;2.03;;
26953;SDS011;14508;50.924;11.600;2022-08-11T12:47:39;5.20;;;2.00;;
26953;SDS011;14508;50.924;11.600;2022-08-11T12:50:22;3.33;;;2.03;;
26953;SDS011;14508;50.924;11.600;2022-08-11T12:53:07;12.23;;;2.42;;
26953;SDS011;14508;50.924;11.600;2022-08-11T12:55:36;7.60;;;2.15;;
26953;SDS011;14508;50.924;11.600;2022-08-11T12:58:23;5.68;;;2.65;;
26953;SDS011;14508;50.924;11.600;2022-08-11T13:00:52;3.72;;;2.13;;
26953;SDS011;14508;50.924;11.600;2022-08-11T13:03:38;4.20;;;1.80;;
26953;SDS011;14508;50.924;11.600;2022-08-11T13:06:23;3.83;;;2.35;;
26953;SDS011;14508;50.924;11.600;2022-08-11T13:08:50;4.72;;;2.13;;
26953;SDS011;14508;50.924;11.600;2022-08-11T13:11:18;6.55;;;2.10;;
26953;SDS011;14508;50.924;11.600;2022-08-11T13:14:03;16.02;;;2.85;;
26953;SDS011;14508;50.924;11.600;2022-08-11T13:16:31;3.15;;;1.83;;
26953;SDS011;14508;50.924;11.600;2022-08-11T13:19:21;6.82;;;2.13;;
26953;SDS011;14508;50.924;11.600;2022-08-11T13:21:49;4.72;;;2.22;;
26953;SDS011;14508;50.924;11.600;2022-08-11T13:24:17;10.00;;;1.95;;
26953;SDS011;14508;50.924;11.600;2022-08-11T13:26:46;3.05;;;2.15;;
26953;SDS011;14508;50.924;11.600;2022-08-11T13:29:18;4.10;;;2.15;;
26953;SDS011;14508;50.924;11.600;2022-08-11T13:31:46;3.92;;;1.88;;
26953;SDS011;14508;50.924;11.600;2022-08-11T13:34:14;3.97;;;2.10;;
26953;SDS011;14508;50.924;11.600;2022-08-11T13:36:43;4.32;;;1.98;;
26953;SDS011;14508;50.924;11.600;2022-08-11T13:39:10;7.85;;;2.05;;
26953;SDS011;14508;50.924;11.600;2022-08-11T13:41:39;14.85;;;2.25;;
26953;SDS011;14508;50.924;11.600;2022-08-11T13:44:10;4.47;;;2.08;;
26953;SDS011;14508;50.924;11.600;2022-08-11T13:46:38;4.00;;;1.90;;
26953;SDS011;14508;50.924;11.600;2022-08-11T13:49:07;11.52;;;2.58;;
26953;SDS011;14508;50.924;11.600;2022-08-11T13:51:36;9.77;;;2.22;;
26953;SDS011;14508;50.924;11.600;2022-08-11T13:54:06;10.35;;;2.67;;
26953;SDS011;14508;50.924;11.600;2022-08-11T13:56:35;11.10;;;2.20;;
26953;SDS011;14508;50.924;11.600;2022-08-11T13:59:04;4.70;;;2.00;;
26953;SDS011;14508;50.924;11.600;2022-08-11T14:01:33;3.80;;;1.80;;
26953;SDS011;14508;50.924;11.600;2022-08-11T14:04:05;7.97;;;2.00;;
26953;SDS011;14508;50.924;11.600;2022-08-11T14:06:35;5.35;;;1.90;;
26953;SDS011;14508;50.924;11.600;2022-08-11T14:09:07;9.25;;;2.45;;
26953;SDS011;14508;50.924;11.600;2022-08-11T14:11:36;9.70;;;1.92;;
26953;SDS011;14508;50.924;11.600;2022-08-11T14:14:25;2.97;;;2.00;;
26953;SDS011;14508;50.924;11.600;2022-08-11T14:16:57;1.83;;;1.70;;
26953;SDS011;14508;50.924;11.600;2022-08-11T14:19:29;8.68;;;2.10;;
26953;SDS011;14508;50.924;11.600;2022-08-11T14:21:57;3.05;;;2.17;;
26953;SDS011;14508;50.924;11.600;2022-08-11T14:24:32;6.85;;;2.22;;
26953;SDS011;14508;50.924;11.600;2022-08-11T14:27:00;4.05;;;2.17;;
26953;SDS011;14508;50.924;11.600;2022-08-11T14:29:28;5.65;;;2.03;;
26953;SDS011;14508;50.924;11.600;2022-08-11T14:31:57;6.47;;;2.08;;
26953;SDS011;14508;50.924;11.600;2022-08-11T14:34:26;7.25;;;2.00;;
26953;SDS011;14508;50.924;11.600;2022-08-11T14:36:59;5.95;;;2.33;;
26953;SDS011;14508;50.924;11.600;2022-08-11T14:39:28;7.57;;;2.08;;
26953;SDS011;14508;50.924;11.600;2022-08-11T14:42:02;5.20;;;2.65;;
26953;SDS011;14508;50.924;11.600;2022-08-11T14:44:49;3.33;;;1.90;;
26953;SDS011;14508;50.924;11.600;2022-08-11T14:47:36;2.67;;;1.95;;
26953;SDS011;14508;50.924;11.600;2022-08-11T14:50:05;5.10;;;2.20;;
26953;SDS011;14508;50.924;11.600;2022-08-11T14:52:39;6.15;;;1.98;;
26953;SDS011;14508;50.924;11.600;2022-08-11T14:55:09;5.00;;;2.40;;
26953;SDS011;14508;50.924;11.600;2022-08-11T14:57:53;10.75;;;2.80;;
26953;SDS011;14508;50.924;11.600;2022-08-11T15:00:21;5.22;;;1.83;;
26953;SDS011;14508;50.924;11.600;2022-08-11T15:02:48;4.28;;;2.08;;
26953;SDS011;14508;50.924;11.600;2022-08-11T15:05:32;6.57;;;2.20;;
26953;SDS011;14508;50.924;11.600;2022-08-11T15:08:00;9.65;;;2.50;;
26953;SDS011;14508;50.924;11.600;2022-08-11T15:10:27;5.30;;;1.95;;
26953;SDS011;14508;50.924;11.600;2022-08-11T15:12:56;2.53;;;1.90;;
26953;SDS011;14508;50.924;11.600;2022-08-11T15:15:24;3.33;;;2.00;;
26953;SDS011;14508;50.924;11.600;2022-08-11T15:20:37;4.10;;;1.73;;
26953;SDS011;14508;50.924;11.600;2022-08-11T15:23:22;12.73;;;2.00;;
26953;SDS011;14508;50.924;11.600;2022-08-11T15:26:06;8.70;;;2.58;;
26953;SDS011;14508;50.924;11.600;2022-08-11T15:28:38;5.00;;;2.00;;
26953;SDS011;14508;50.924;11.600;2022-08-11T15:31:26;7.00;;;2.08;;
26953;SDS011;14508;50.924;11.600;2022-08-11T15:34:13;3.28;;;2.13;;
26953;SDS011;14508;50.924;11.600;2022-08-11T15:37:02;6.38;;;2.10;;
26953;SDS011;14508;50.924;11.600;2022-08-11T15:39:51;9.50;;;2.50;;
26953;SDS011;14508;50.924;11.600;2022-08-11T15:42:40;7.22;;;2.33;;
26953;SDS011;14508;50.924;11.600;2022-08-11T15:45:30;4.40;;;2.30;;
26953;SDS011;14508;50.924;11.600;2022-08-11T15:48:16;10.55;;;1.90;;
26953;SDS011;14508;50.924;11.600;2022-08-11T15:50:53;16.20;;;3.08;;
26953;SDS011;14508;50.924;11.600;2022-08-11T15:53:25;3.92;;;2.03;;
26953;SDS011;14508;50.924;11.600;2022-08-11T15:55:57;6.05;;;2.72;;
26953;SDS011;14508;50.924;11.600;2022-08-11T15:58:27;6.38;;;2.10;;
26953;SDS011;14508;50.924;11.600;2022-08-11T16:01:19;4.53;;;2.17;;
26953;SDS011;14508;50.924;11.600;2022-08-11T16:04:07;2.92;;;2.00;;
26953;SDS011;14508;50.924;11.600;2022-08-11T16:06:41;8.75;;;2.35;;
26953;SDS011;14508;50.924;11.600;2022-08-11T16:09:16;10.73;;;2.65;;
26953;SDS011;14508;50.924;11.600;2022-08-11T16:11:47;6.22;;;2.10;;
26953;SDS011;14508;50.924;11.600;2022-08-11T16:14:16;5.93;;;2.20;;
26953;SDS011;14508;50.924;11.600;2022-08-11T16:17:04;4.93;;;2.20;;
26953;SDS011;14508;50.924;11.600;2022-08-11T16:19:33;11.77;;;2.40;;
26953;SDS011;14508;50.924;11.600;2022-08-11T16:22:02;8.60;;;2.50;;
26953;SDS011;14508;50.924;11.600;2022-08-11T16:24:34;5.65;;;2.15;;
26953;SDS011;14508;50.924;11.600;2022-08-11T16:27:03;6.57;;;2.42;;
26953;SDS011;14508;50.924;11.600;2022-08-11T16:29:31;9.30;;;2.58;;
26953;SDS011;14508;50.924;11.600;2022-08-11T16:32:03;3.35;;;2.30;;